Yahata Maru — JL6477 — position and weather

sailwx.info

Track history (hours):
 
Tides and Currents Weather Stations Pressure Air Temp Water Temp Dewpoint Dewpoint Depression Visibility Wind Speed Wind Dir Waves Ship Positions

Yahata Maru

Last reported at 2015-Jul-29 22:32 UTC. Time now 2015-Jul-31 11:24 UTC.
Position N 35°01' E 139°30'.

Length 149 m; draft 4.7 m.

Type: Other ship. MMSI: 431400594.

Date/timePositionNaut miles runAvg speedWind from/ knotsBaromVisibWave heightAir tempDewpointWater temp
2015-Jul-29 22:32N 35°01' E 139°30'9 9.0
2015-Jul-29 21:34N 35°06' E 139°39'9 9.5
2015-Jul-29 20:33N 35°14' E 139°46'10 9.9
2015-Jul-29 19:33N 35°23' E 139°42'5 4.9
2015-Jul-29 18:34N 35°28' E 139°43'0 0.0
2015-Jul-29 17:34N 35°28' E 139°43'0 0.0
2015-Jul-29 16:34N 35°28' E 139°43'0 0.0
2015-Jul-29 15:34N 35°28' E 139°43'0 0.0
2015-Jul-29 14:34N 35°28' E 139°43'2 2.0
2015-Jul-29 13:34N 35°27' E 139°45'9 9.0
2015-Jul-29 12:34N 35°31' E 139°55'5 4.6
2015-Jul-29 11:31N 35°33' E 140°00'0 0.0
2015-Jul-29 10:31N 35°33' E 140°00'0 0.0
2015-Jul-29 09:31N 35°33' E 140°00'0 0.0
2015-Jul-29 08:31N 35°33' E 140°00'0 0.0
2015-Jul-29 07:31N 35°33' E 140°00'0 0.0
2015-Jul-29 06:31N 35°33' E 140°00'0 0.0
2015-Jul-29 05:31N 35°33' E 140°00'0 0.0
2015-Jul-29 04:19N 35°33' E 140°00'0 0.4
2015-Jul-29 03:33N 35°33' E 140°00'5 5.2
2015-Jul-29 02:33N 35°33' E 140°07'0 0.0
2015-Jul-29 01:25N 35°33' E 140°07'0 0.0
2015-Jul-29 00:31N 35°33' E 140°07'0 0.0
2015-Jul-28 23:28N 35°33' E 140°07'0 0.0
2015-Jul-28 22:28N 35°33' E 140°07'0 0.0
2015-Jul-28 21:31N 35°33' E 140°07'0 0.0
2015-Jul-28 20:25N 35°33' E 140°07'0 0.0
2015-Jul-28 19:25N 35°33' E 140°07'0 0.0
2015-Jul-28 18:31N 35°33' E 140°07'0 0.0
2015-Jul-28 17:19N 35°33' E 140°07'0 0.0
2015-Jul-28 16:31N 35°33' E 140°07'0 0.0
2015-Jul-28 15:31N 35°33' E 140°07'0 0.0
2015-Jul-28 14:25N 35°33' E 140°07'0 0.0
2015-Jul-28 13:28N 35°33' E 140°07'0 0.0
2015-Jul-28 12:25N 35°33' E 140°07'0 0.0
2015-Jul-28 11:25N 35°33' E 140°07'0 0.0
2015-Jul-28 10:31N 35°33' E 140°07'0 0.0
2015-Jul-28 09:28N 35°33' E 140°07'0 0.0
2015-Jul-28 08:31N 35°33' E 140°07'0 0.0
2015-Jul-28 07:31N 35°33' E 140°07'0 0.0
2015-Jul-28 06:31N 35°33' E 140°07'0 0.0
2015-Jul-28 05:25N 35°33' E 140°07'0 0.0
2015-Jul-28 04:25N 35°33' E 140°07'1 1.4
2015-Jul-28 03:33N 35°33' E 140°05'4 3.8
2015-Jul-28 02:31N 35°32' E 140°01'0 0.1
2015-Jul-28 01:31N 35°33' E 140°01'0 0.1
2015-Jul-28 00:31N 35°33' E 140°01'0 0.0
2015-Jul-27 23:31N 35°33' E 140°01'0 0.0
2015-Jul-27 22:31N 35°33' E 140°01'0 0.0
2015-Jul-27 21:31N 35°33' E 140°01'0 0.0
2015-Jul-27 20:31N 35°33' E 140°01'0 0.0
2015-Jul-27 19:28N 35°33' E 140°01'0 0.0
2015-Jul-27 18:31N 35°33' E 140°01'0 0.0
2015-Jul-27 17:31N 35°33' E 140°01'0 0.0
2015-Jul-27 16:31N 35°33' E 140°01'0 0.0
2015-Jul-27 15:31N 35°33' E 140°01'0 0.0
2015-Jul-27 14:31N 35°33' E 140°01'0 0.0
2015-Jul-27 13:31N 35°33' E 140°01'0 0.0
2015-Jul-27 12:28N 35°33' E 140°01'0 0.0
2015-Jul-27 11:31N 35°33' E 140°01'0 0.0
2015-Jul-27 10:31N 35°33' E 140°01'0 0.0
2015-Jul-27 09:28N 35°33' E 140°01'0 0.0
2015-Jul-27 08:31N 35°33' E 140°01'0 0.0
2015-Jul-27 07:31N 35°33' E 140°01'0 0.0
2015-Jul-27 06:31N 35°33' E 140°01'0 0.0
2015-Jul-27 05:31N 35°33' E 140°01'0 0.0
2015-Jul-27 04:31N 35°33' E 140°01'0 0.1
2015-Jul-27 03:28N 35°33' E 140°01'0 0.1
2015-Jul-27 02:31N 35°32' E 140°01'5 5.0
2015-Jul-27 01:33N 35°31' E 139°55'10 9.6
2015-Jul-27 00:33N 35°24' E 139°46'8 8.4
2015-Jul-26 23:33N 35°16' E 139°47'8 8.4
2015-Jul-26 22:33N 35°08' E 139°44'9 9.1
2015-Jul-26 21:33N 35°01' E 139°36'1311.5
2015-Jul-26 20:26N 34°54' E 139°24'  
2015-Jul-22 10:31N 34°36' E 134°53'8 7.8
2015-Jul-22 09:32N 34°37' E 135°02'8 8.4
2015-Jul-22 08:33N 34°36' E 135°12'9 8.9
2015-Jul-22 07:33N 34°36' E 135°23'2 2.1
2015-Jul-22 06:28N 34°35' E 135°26'1 1.0
2015-Jul-22 05:33N 34°36' E 135°25'7 7.3
2015-Jul-22 04:33N 34°41' E 135°19'1 0.7
2015-Jul-22 03:31N 34°42' E 135°19'0 0.1
2015-Jul-22 02:31N 34°42' E 135°19'0 0.1
2015-Jul-22 01:31N 34°42' E 135°19'0 0.0
2015-Jul-22 00:31N 34°42' E 135°19'0 0.0
2015-Jul-21 23:25N 34°42' E 135°19'0 0.1
2015-Jul-21 22:19N 34°42' E 135°19'0 0.1
2015-Jul-21 21:31N 34°42' E 135°19'0 0.1
2015-Jul-21 20:31N 34°42' E 135°19'0 0.0
2015-Jul-21 19:31N 34°42' E 135°19'0 0.0
2015-Jul-21 18:31N 34°42' E 135°19'0 0.0
2015-Jul-21 17:25N 34°42' E 135°19'0 0.1
2015-Jul-21 16:31N 34°42' E 135°19'0 0.0
2015-Jul-21 15:31N 34°42' E 135°19'0 0.0
2015-Jul-21 14:31N 34°42' E 135°19'0 0.0
2015-Jul-21 13:31N 34°42' E 135°19'0 0.1
2015-Jul-21 12:31N 34°42' E 135°19'0 0.1
2015-Jul-21 11:31N 34°42' E 135°19'0 0.1
2015-Jul-21 10:31N 34°42' E 135°19'0 0.1
2015-Jul-21 09:33N 34°42' E 135°19'2 0.5
2015-Jul-21 05:21N 34°43' E 135°21'0 0.5
2015-Jul-21 04:31N 34°43' E 135°21'7 7.7
2015-Jul-21 03:33N 34°36' E 135°17'1010.0
2015-Jul-21 02:33N 34°28' E 135°09'1110.6
2015-Jul-21 01:31N 34°20' E 135°01'1110.8
2015-Jul-21 00:32N 34°09' E 135°00'  
Track history (hours):
 
Tides and Currents Weather Stations Pressure Air Temp Water Temp Dewpoint Dewpoint Depression Visibility Wind Speed Wind Dir Waves Ship Positions

Yahata Maru

Last reported at 2015-Jul-29 22:32 UTC. Time now 2015-Jul-31 11:24 UTC.
Position N 35°01' E 139°30'.

Length 149 m; draft 4.7 m.

Type: Other ship. MMSI: 431400594.

Date/timePositionNaut miles runAvg speedWind from/ knotsBaromVisibWave heightAir tempDewpointWater temp
2015-Jul-29 22:32N 35°01' E 139°30'9 9.0
2015-Jul-29 21:34N 35°06' E 139°39'9 9.5
2015-Jul-29 20:33N 35°14' E 139°46'10 9.9
2015-Jul-29 19:33N 35°23' E 139°42'5 4.9
2015-Jul-29 18:34N 35°28' E 139°43'0 0.0
2015-Jul-29 17:34N 35°28' E 139°43'0 0.0
2015-Jul-29 16:34N 35°28' E 139°43'0 0.0
2015-Jul-29 15:34N 35°28' E 139°43'0 0.0
2015-Jul-29 14:34N 35°28' E 139°43'2 2.0
2015-Jul-29 13:34N 35°27' E 139°45'9 9.0
2015-Jul-29 12:34N 35°31' E 139°55'5 4.6
2015-Jul-29 11:31N 35°33' E 140°00'0 0.0
2015-Jul-29 10:31N 35°33' E 140°00'0 0.0
2015-Jul-29 09:31N 35°33' E 140°00'0 0.0
2015-Jul-29 08:31N 35°33' E 140°00'0 0.0
2015-Jul-29 07:31N 35°33' E 140°00'0 0.0
2015-Jul-29 06:31N 35°33' E 140°00'0 0.0
2015-Jul-29 05:31N 35°33' E 140°00'0 0.0
2015-Jul-29 04:19N 35°33' E 140°00'0 0.4
2015-Jul-29 03:33N 35°33' E 140°00'5 5.2
2015-Jul-29 02:33N 35°33' E 140°07'0 0.0
2015-Jul-29 01:25N 35°33' E 140°07'0 0.0
2015-Jul-29 00:31N 35°33' E 140°07'0 0.0
2015-Jul-28 23:28N 35°33' E 140°07'0 0.0
2015-Jul-28 22:28N 35°33' E 140°07'0 0.0
2015-Jul-28 21:31N 35°33' E 140°07'0 0.0
2015-Jul-28 20:25N 35°33' E 140°07'0 0.0
2015-Jul-28 19:25N 35°33' E 140°07'0 0.0
2015-Jul-28 18:31N 35°33' E 140°07'0 0.0
2015-Jul-28 17:19N 35°33' E 140°07'0 0.0
2015-Jul-28 16:31N 35°33' E 140°07'0 0.0
2015-Jul-28 15:31N 35°33' E 140°07'0 0.0
2015-Jul-28 14:25N 35°33' E 140°07'0 0.0
2015-Jul-28 13:28N 35°33' E 140°07'0 0.0
2015-Jul-28 12:25N 35°33' E 140°07'0 0.0
2015-Jul-28 11:25N 35°33' E 140°07'0 0.0
2015-Jul-28 10:31N 35°33' E 140°07'0 0.0
2015-Jul-28 09:28N 35°33' E 140°07'0 0.0
2015-Jul-28 08:31N 35°33' E 140°07'0 0.0
2015-Jul-28 07:31N 35°33' E 140°07'0 0.0
2015-Jul-28 06:31N 35°33' E 140°07'0 0.0
2015-Jul-28 05:25N 35°33' E 140°07'0 0.0
2015-Jul-28 04:25N 35°33' E 140°07'1 1.4
2015-Jul-28 03:33N 35°33' E 140°05'4 3.8
2015-Jul-28 02:31N 35°32' E 140°01'0 0.1
2015-Jul-28 01:31N 35°33' E 140°01'0 0.1
2015-Jul-28 00:31N 35°33' E 140°01'0 0.0
2015-Jul-27 23:31N 35°33' E 140°01'0 0.0
2015-Jul-27 22:31N 35°33' E 140°01'0 0.0
2015-Jul-27 21:31N 35°33' E 140°01'0 0.0
2015-Jul-27 20:31N 35°33' E 140°01'0 0.0
2015-Jul-27 19:28N 35°33' E 140°01'0 0.0
2015-Jul-27 18:31N 35°33' E 140°01'0 0.0
2015-Jul-27 17:31N 35°33' E 140°01'0 0.0
2015-Jul-27 16:31N 35°33' E 140°01'0 0.0
2015-Jul-27 15:31N 35°33' E 140°01'0 0.0
2015-Jul-27 14:31N 35°33' E 140°01'0 0.0
2015-Jul-27 13:31N 35°33' E 140°01'0 0.0
2015-Jul-27 12:28N 35°33' E 140°01'0 0.0
2015-Jul-27 11:31N 35°33' E 140°01'0 0.0
2015-Jul-27 10:31N 35°33' E 140°01'0 0.0
2015-Jul-27 09:28N 35°33' E 140°01'0 0.0
2015-Jul-27 08:31N 35°33' E 140°01'0 0.0
2015-Jul-27 07:31N 35°33' E 140°01'0 0.0
2015-Jul-27 06:31N 35°33' E 140°01'0 0.0
2015-Jul-27 05:31N 35°33' E 140°01'0 0.0
2015-Jul-27 04:31N 35°33' E 140°01'0 0.1
2015-Jul-27 03:28N 35°33' E 140°01'0 0.1
2015-Jul-27 02:31N 35°32' E 140°01'5 5.0
2015-Jul-27 01:33N 35°31' E 139°55'10 9.6
2015-Jul-27 00:33N 35°24' E 139°46'8 8.4
2015-Jul-26 23:33N 35°16' E 139°47'8 8.4
2015-Jul-26 22:33N 35°08' E 139°44'9 9.1
2015-Jul-26 21:33N 35°01' E 139°36'1311.5
2015-Jul-26 20:26N 34°54' E 139°24'  
2015-Jul-22 10:31N 34°36' E 134°53'8 7.8
2015-Jul-22 09:32N 34°37' E 135°02'8 8.4
2015-Jul-22 08:33N 34°36' E 135°12'9 8.9
2015-Jul-22 07:33N 34°36' E 135°23'2 2.1
2015-Jul-22 06:28N 34°35' E 135°26'1 1.0
2015-Jul-22 05:33N 34°36' E 135°25'7 7.3
2015-Jul-22 04:33N 34°41' E 135°19'1 0.7
2015-Jul-22 03:31N 34°42' E 135°19'0 0.1
2015-Jul-22 02:31N 34°42' E 135°19'0 0.1
2015-Jul-22 01:31N 34°42' E 135°19'0 0.0
2015-Jul-22 00:31N 34°42' E 135°19'0 0.0
2015-Jul-21 23:25N 34°42' E 135°19'0 0.1
2015-Jul-21 22:19N 34°42' E 135°19'0 0.1
2015-Jul-21 21:31N 34°42' E 135°19'0 0.1
2015-Jul-21 20:31N 34°42' E 135°19'0 0.0
2015-Jul-21 19:31N 34°42' E 135°19'0 0.0
2015-Jul-21 18:31N 34°42' E 135°19'0 0.0
2015-Jul-21 17:25N 34°42' E 135°19'0 0.1
2015-Jul-21 16:31N 34°42' E 135°19'0 0.0
2015-Jul-21 15:31N 34°42' E 135°19'0 0.0
2015-Jul-21 14:31N 34°42' E 135°19'0 0.0
2015-Jul-21 13:31N 34°42' E 135°19'0 0.1
2015-Jul-21 12:31N 34°42' E 135°19'0 0.1
2015-Jul-21 11:31N 34°42' E 135°19'0 0.1
2015-Jul-21 10:31N 34°42' E 135°19'0 0.1
2015-Jul-21 09:33N 34°42' E 135°19'2 0.5
2015-Jul-21 05:21N 34°43' E 135°21'0 0.5
2015-Jul-21 04:31N 34°43' E 135°21'7 7.7
2015-Jul-21 03:33N 34°36' E 135°17'1010.0
2015-Jul-21 02:33N 34°28' E 135°09'1110.6
2015-Jul-21 01:31N 34°20' E 135°01'1110.8
2015-Jul-21 00:32N 34°09' E 135°00'  

Dump ship's entire track history